PWSweather.com
Personal Weather Stations
Station Observations
KMNMADEL2
Andys Live Weather Stations, Madelia, MN 56062

Andys Live Weather StationsMadelia, MN 56062

Lat: 44.04636, Lon: -94.4163437

Elevation: 1006

Station Type: Wireless Davis Instruments Vantage Pro2 Plus

http://www.madeliasliveweather.com/

Latest ConditionsUpdated 10:15:03 PM CDT Wednesday, Apr 23, 2014
Currently Today's Max Today's Min Today's Average
Temperature 44.8°F7.1°C 51.1°F10.6°C 43.0°F6.1°C 46.0°F7.8°C
Dew Point 39.0°F3.9°C 39.0°F3.9°C 33.5°F0.8°C 36.6°F2.6°C
Winds 3.0 mph ESE4.8 kmh ESE 22.0 mph ESE35.4 kmh ESE - 8.2 mph 13.2 kmh
Wind Gusts 15.0 mph24.1 kmh 27.0 mph43.5 kmh - -
Humidity 80% 81% 54% 70%
Pressure 29.84 in1010.5 mb 30.04 in1017.3 mb 29.82 in1009.8 mb -
Hour Temp Dew Point Humidity Winds Wind Gusts Pressure Precip Precip Rate Daily Precip Total
10:15 PM 44.8°F7.1°C 39.0°F3.9°C 80% 3.0 mph ESE4.8 kmh ESE 15.0 mph24.1 kmh 29.84 in1010.5 mb 0.00 in0.0 mm 0.00 in/hr0.0 mm/hr 0.00 in0.0 mm
10:10 PM 44.8°F7.1°C 39.0°F3.9°C 80% 7.0 mph SE11.3 kmh SE 14.0 mph22.5 kmh 29.84 in1010.5 mb 0.00 in0.0 mm 0.00 in/hr0.0 mm/hr 0.00 in0.0 mm
10:05 PM 44.7°F7.1°C 38.9°F3.8°C 80% 10.0 mph SE16.1 kmh SE 14.0 mph22.5 kmh 29.84 in1010.5 mb 0.00 in0.0 mm 0.00 in/hr0.0 mm/hr 0.00 in0.0 mm
10:00 PM 44.7°F7.1°C 38.9°F3.8°C 80% 7.0 mph SE11.3 kmh SE 9.0 mph14.5 kmh 29.85 in1010.8 mb 0.00 in0.0 mm 0.00 in/hr0.0 mm/hr 0.00 in0.0 mm
09:55 PM 44.7°F7.1°C 38.9°F3.8°C 80% 10.0 mph ESE16.1 kmh ESE 18.0 mph29.0 kmh 29.85 in1010.8 mb 0.00 in0.0 mm 0.00 in/hr0.0 mm/hr 0.00 in0.0 mm
09:50 PM 44.7°F7.1°C 38.9°F3.8°C 80% 3.0 mph SE4.8 kmh SE 18.0 mph29.0 kmh 29.84 in1010.5 mb 0.00 in0.0 mm 0.00 in/hr0.0 mm/hr 0.00 in0.0 mm
09:45 PM 44.7°F7.1°C 38.9°F3.8°C 80% 10.0 mph E16.1 kmh E 18.0 mph29.0 kmh 29.84 in1010.5 mb 0.00 in0.0 mm 0.00 in/hr0.0 mm/hr 0.00 in0.0 mm
09:40 PM 44.7°F7.1°C 38.9°F3.8°C 80% 9.0 mph ESE14.5 kmh ESE 18.0 mph29.0 kmh 29.84 in1010.5 mb 0.00 in0.0 mm 0.00 in/hr0.0 mm/hr 0.00 in0.0 mm
09:35 PM 44.7°F7.1°C 38.9°F3.8°C 80% 11.0 mph ESE17.7 kmh ESE 18.0 mph29.0 kmh 29.84 in1010.5 mb 0.00 in0.0 mm 0.00 in/hr0.0 mm/hr 0.00 in0.0 mm
09:30 PM 44.7°F7.1°C 38.6°F3.7°C 79% 4.0 mph ENE6.4 kmh ENE 18.0 mph29.0 kmh 29.84 in1010.5 mb 0.00 in0.0 mm 0.00 in/hr0.0 mm/hr 0.00 in0.0 mm
09:25 PM 44.7°F7.1°C 38.6°F3.7°C 79% 11.0 mph ESE17.7 kmh ESE 16.0 mph25.7 kmh 29.83 in1010.2 mb 0.00 in0.0 mm 0.00 in/hr0.0 mm/hr 0.00 in0.0 mm
09:20 PM 44.8°F7.1°C 38.7°F3.7°C 79% 7.0 mph E11.3 kmh E 16.0 mph25.7 kmh 29.84 in1010.5 mb 0.00 in0.0 mm 0.00 in/hr0.0 mm/hr 0.00 in0.0 mm
09:15 PM 44.8°F7.1°C 38.7°F3.7°C 79% 9.0 mph ESE14.5 kmh ESE 16.0 mph25.7 kmh 29.84 in1010.5 mb 0.00 in0.0 mm 0.00 in/hr0.0 mm/hr 0.00 in0.0 mm
09:10 PM 44.8°F7.1°C 38.7°F3.7°C 79% 10.0 mph ESE16.1 kmh ESE 16.0 mph25.7 kmh 29.84 in1010.5 mb 0.00 in0.0 mm 0.00 in/hr0.0 mm/hr 0.00 in0.0 mm
09:05 PM 44.8°F7.1°C 38.7°F3.7°C 79% 4.0 mph SE6.4 kmh SE 14.0 mph22.5 kmh 29.84 in1010.5 mb 0.00 in0.0 mm 0.00 in/hr0.0 mm/hr 0.00 in0.0 mm
09:00 PM 44.9°F7.2°C 38.8°F3.8°C 79% 11.0 mph SE17.7 kmh SE 14.0 mph22.5 kmh 29.84 in1010.5 mb 0.00 in0.0 mm 0.00 in/hr0.0 mm/hr 0.00 in0.0 mm
08:55 PM 44.9°F7.2°C 38.8°F3.8°C 79% 8.0 mph ESE12.9 kmh ESE 20.0 mph32.2 kmh 29.85 in1010.8 mb 0.00 in0.0 mm 0.00 in/hr0.0 mm/hr 0.00 in0.0 mm
08:50 PM 44.9°F7.2°C 38.5°F3.6°C 78% 13.0 mph ESE20.9 kmh ESE 20.0 mph32.2 kmh 29.84 in1010.5 mb 0.00 in0.0 mm 0.00 in/hr0.0 mm/hr 0.00 in0.0 mm
08:45 PM 44.9°F7.2°C 38.5°F3.6°C 78% 10.0 mph SSE16.1 kmh SSE 20.0 mph32.2 kmh 29.85 in1010.8 mb 0.00 in0.0 mm 0.00 in/hr0.0 mm/hr 0.00 in0.0 mm
08:40 PM 45.0°F7.2°C 38.6°F3.7°C 78% 9.0 mph SE14.5 kmh SE 20.0 mph32.2 kmh 29.85 in1010.8 mb 0.00 in0.0 mm 0.00 in/hr0.0 mm/hr 0.00 in0.0 mm
08:35 PM 45.0°F7.2°C 38.6°F3.7°C 78% 7.0 mph SE11.3 kmh SE 20.0 mph32.2 kmh 29.84 in1010.5 mb 0.00 in0.0 mm 0.00 in/hr0.0 mm/hr 0.00 in0.0 mm
08:30 PM 45.0°F7.2°C 38.6°F3.7°C 78% 7.0 mph SE11.3 kmh SE 11.0 mph17.7 kmh 29.85 in1010.8 mb 0.00 in0.0 mm 0.00 in/hr0.0 mm/hr 0.00 in0.0 mm
08:25 PM 45.0°F7.2°C 38.6°F3.7°C 78% 9.0 mph S14.5 kmh S 21.0 mph33.8 kmh 29.85 in1010.8 mb 0.00 in0.0 mm 0.00 in/hr0.0 mm/hr 0.00 in0.0 mm
08:20 PM 45.0°F7.2°C 38.2°F3.4°C 77% 6.0 mph SE9.7 kmh SE 21.0 mph33.8 kmh 29.84 in1010.5 mb 0.00 in0.0 mm 0.00 in/hr0.0 mm/hr 0.00 in0.0 mm
08:15 PM 45.1°F7.3°C 38.3°F3.5°C 77% 12.0 mph SE19.3 kmh SE 21.0 mph33.8 kmh 29.84 in1010.5 mb 0.00 in0.0 mm 0.00 in/hr0.0 mm/hr 0.00 in0.0 mm
08:10 PM 45.1°F7.3°C 38.3°F3.5°C 77% 11.0 mph ESE17.7 kmh ESE 17.0 mph27.4 kmh 29.84 in1010.5 mb 0.00 in0.0 mm 0.00 in/hr0.0 mm/hr 0.00 in0.0 mm
08:05 PM 45.1°F7.3°C 38.3°F3.5°C 77% 11.0 mph ESE17.7 kmh ESE 17.0 mph27.4 kmh 29.84 in1010.5 mb 0.00 in0.0 mm 0.00 in/hr0.0 mm/hr 0.00 in0.0 mm
08:00 PM 45.1°F7.3°C 38.3°F3.5°C 77% 7.0 mph E11.3 kmh E 12.0 mph19.3 kmh 29.84 in1010.5 mb 0.00 in0.0 mm 0.00 in/hr0.0 mm/hr 0.00 in0.0 mm
07:55 PM 45.2°F7.3°C 38.4°F3.6°C 77% 7.0 mph ESE11.3 kmh ESE 22.0 mph35.4 kmh 29.83 in1010.2 mb 0.00 in0.0 mm 0.00 in/hr0.0 mm/hr 0.00 in0.0 mm
07:50 PM 45.2°F7.3°C 38.4°F3.6°C 77% 10.0 mph E16.1 kmh E 22.0 mph35.4 kmh 29.84 in1010.5 mb 0.00 in0.0 mm 0.00 in/hr0.0 mm/hr 0.00 in0.0 mm
07:45 PM 45.1°F7.3°C 38.3°F3.5°C 77% 9.0 mph ESE14.5 kmh ESE 22.0 mph35.4 kmh 29.83 in1010.2 mb 0.00 in0.0 mm 0.00 in/hr0.0 mm/hr 0.00 in0.0 mm
07:40 PM 45.2°F7.3°C 38.1°F3.4°C 76% 9.0 mph SE14.5 kmh SE 17.0 mph27.4 kmh 29.83 in1010.2 mb 0.00 in0.0 mm 0.00 in/hr0.0 mm/hr 0.00 in0.0 mm
07:35 PM 45.2°F7.3°C 38.1°F3.4°C 76% 11.0 mph ESE17.7 kmh ESE 17.0 mph27.4 kmh 29.83 in1010.2 mb 0.00 in0.0 mm 0.00 in/hr0.0 mm/hr 0.00 in0.0 mm
07:30 PM 45.2°F7.3°C 38.1°F3.4°C 76% 6.0 mph S9.7 kmh S 13.0 mph20.9 kmh 29.83 in1010.2 mb 0.00 in0.0 mm 0.00 in/hr0.0 mm/hr 0.00 in0.0 mm
07:25 PM 45.3°F7.4°C 38.2°F3.4°C 76% 10.0 mph SE16.1 kmh SE 25.0 mph40.2 kmh 29.83 in1010.2 mb 0.00 in0.0 mm 0.00 in/hr0.0 mm/hr 0.00 in0.0 mm
07:20 PM 45.4°F7.4°C 38.3°F3.5°C 76% 9.0 mph ESE14.5 kmh ESE 25.0 mph40.2 kmh 29.83 in1010.2 mb 0.00 in0.0 mm 0.00 in/hr0.0 mm/hr 0.00 in0.0 mm
07:15 PM 45.4°F7.4°C 38.0°F3.3°C 75% 8.0 mph SE12.9 kmh SE 25.0 mph40.2 kmh 29.83 in1010.2 mb 0.00 in0.0 mm 0.00 in/hr0.0 mm/hr 0.00 in0.0 mm
07:10 PM 45.5°F7.5°C 38.4°F3.6°C 76% 10.0 mph ESE16.1 kmh ESE 21.0 mph33.8 kmh 29.83 in1010.2 mb 0.00 in0.0 mm 0.00 in/hr0.0 mm/hr 0.00 in0.0 mm
07:05 PM 45.5°F7.5°C 38.4°F3.6°C 76% 10.0 mph E16.1 kmh E 19.0 mph30.6 kmh 29.83 in1010.2 mb 0.00 in0.0 mm 0.00 in/hr0.0 mm/hr 0.00 in0.0 mm
07:00 PM 45.6°F7.6°C 38.2°F3.4°C 75% 9.0 mph ESE14.5 kmh ESE 15.0 mph24.1 kmh 29.82 in1009.8 mb 0.00 in0.0 mm 0.00 in/hr0.0 mm/hr 0.00 in0.0 mm
06:55 PM 45.6°F7.6°C 38.2°F3.4°C 75% 4.0 mph SE6.4 kmh SE 22.0 mph35.4 kmh 29.83 in1010.2 mb 0.00 in0.0 mm 0.00 in/hr0.0 mm/hr 0.00 in0.0 mm
06:50 PM 45.7°F7.6°C 38.2°F3.4°C 75% 15.0 mph SE24.1 kmh SE 22.0 mph35.4 kmh 29.82 in1009.8 mb 0.00 in0.0 mm 0.00 in/hr0.0 mm/hr 0.00 in0.0 mm
06:45 PM 45.7°F7.6°C 38.2°F3.4°C 75% 6.0 mph SE9.7 kmh SE 22.0 mph35.4 kmh 29.82 in1009.8 mb 0.00 in0.0 mm 0.00 in/hr0.0 mm/hr 0.00 in0.0 mm
06:40 PM 45.8°F7.7°C 38.3°F3.5°C 75% 12.0 mph ESE19.3 kmh ESE 22.0 mph35.4 kmh 29.82 in1009.8 mb 0.00 in0.0 mm 0.00 in/hr0.0 mm/hr 0.00 in0.0 mm
06:35 PM 45.8°F7.7°C 38.3°F3.5°C 75% 14.0 mph E22.5 kmh E 20.0 mph32.2 kmh 29.82 in1009.8 mb 0.00 in0.0 mm 0.00 in/hr0.0 mm/hr 0.00 in0.0 mm
06:30 PM 45.7°F7.6°C 38.2°F3.4°C 75% 11.0 mph ESE17.7 kmh ESE 13.0 mph20.9 kmh 29.82 in1009.8 mb 0.00 in0.0 mm 0.00 in/hr0.0 mm/hr 0.00 in0.0 mm
06:25 PM 45.8°F7.7°C 38.3°F3.5°C 75% 15.0 mph E24.1 kmh E 23.0 mph37.0 kmh 29.82 in1009.8 mb 0.00 in0.0 mm 0.00 in/hr0.0 mm/hr 0.00 in0.0 mm
06:20 PM 45.9°F7.7°C 38.4°F3.6°C 75% 11.0 mph ESE17.7 kmh ESE 23.0 mph37.0 kmh 29.82 in1009.8 mb 0.00 in0.0 mm 0.00 in/hr0.0 mm/hr 0.00 in0.0 mm
06:15 PM 45.9°F7.7°C 38.4°F3.6°C 75% 7.0 mph ESE11.3 kmh ESE 23.0 mph37.0 kmh 29.83 in1010.2 mb 0.00 in0.0 mm 0.00 in/hr0.0 mm/hr 0.00 in0.0 mm
06:10 PM 46.0°F7.8°C 38.5°F3.6°C 75% 14.0 mph SE22.5 kmh SE 23.0 mph37.0 kmh 29.83 in1010.2 mb 0.00 in0.0 mm 0.00 in/hr0.0 mm/hr 0.00 in0.0 mm
06:05 PM 46.0°F7.8°C 38.5°F3.6°C 75% 9.0 mph SSE14.5 kmh SSE 23.0 mph37.0 kmh 29.83 in1010.2 mb 0.00 in0.0 mm 0.00 in/hr0.0 mm/hr 0.00 in0.0 mm
06:00 PM 46.0°F7.8°C 38.5°F3.6°C 75% 12.0 mph ESE19.3 kmh ESE 17.0 mph27.4 kmh 29.83 in1010.2 mb 0.00 in0.0 mm 0.00 in/hr0.0 mm/hr 0.00 in0.0 mm
05:55 PM 46.0°F7.8°C 38.5°F3.6°C 75% 12.0 mph ESE19.3 kmh ESE 27.0 mph43.5 kmh 29.83 in1010.2 mb 0.00 in0.0 mm 0.00 in/hr0.0 mm/hr 0.00 in0.0 mm
05:50 PM 45.9°F7.7°C 38.4°F3.6°C 75% 17.0 mph E27.4 kmh E 27.0 mph43.5 kmh 29.83 in1010.2 mb 0.00 in0.0 mm 0.00 in/hr0.0 mm/hr 0.00 in0.0 mm
05:45 PM 46.0°F7.8°C 38.5°F3.6°C 75% 15.0 mph E24.1 kmh E 27.0 mph43.5 kmh 29.83 in1010.2 mb 0.00 in0.0 mm 0.00 in/hr0.0 mm/hr 0.00 in0.0 mm
05:40 PM 46.0°F7.8°C 38.5°F3.6°C 75% 11.0 mph SE17.7 kmh SE 27.0 mph43.5 kmh 29.83 in1010.2 mb 0.00 in0.0 mm 0.00 in/hr0.0 mm/hr 0.00 in0.0 mm
05:35 PM 46.1°F7.8°C 38.3°F3.5°C 74% 16.0 mph E25.7 kmh E 25.0 mph40.2 kmh 29.83 in1010.2 mb 0.00 in0.0 mm 0.00 in/hr0.0 mm/hr 0.00 in0.0 mm
05:30 PM 46.1°F7.8°C 38.6°F3.7°C 75% 19.0 mph SE30.6 kmh SE 20.0 mph32.2 kmh 29.83 in1010.2 mb 0.00 in0.0 mm 0.00 in/hr0.0 mm/hr 0.00 in0.0 mm
05:25 PM 46.1°F7.8°C 38.6°F3.7°C 75% 17.0 mph ESE27.4 kmh ESE 24.0 mph38.6 kmh 29.83 in1010.2 mb 0.00 in0.0 mm 0.00 in/hr0.0 mm/hr 0.00 in0.0 mm
05:20 PM 46.0°F7.8°C 38.9°F3.8°C 76% 14.0 mph ESE22.5 kmh ESE 24.0 mph38.6 kmh 29.84 in1010.5 mb 0.00 in0.0 mm 0.00 in/hr0.0 mm/hr 0.00 in0.0 mm
05:15 PM 46.0°F7.8°C 38.9°F3.8°C 76% 11.0 mph SE17.7 kmh SE 24.0 mph38.6 kmh 29.83 in1010.2 mb 0.00 in0.0 mm 0.00 in/hr0.0 mm/hr 0.00 in0.0 mm
05:10 PM 46.1°F7.8°C 39.0°F3.9°C 76% 6.0 mph SE9.7 kmh SE 18.0 mph29.0 kmh 29.85 in1010.8 mb 0.00 in0.0 mm 0.00 in/hr0.0 mm/hr 0.00 in0.0 mm
05:05 PM 46.0°F7.8°C 38.9°F3.8°C 76% 8.0 mph E12.9 kmh E 18.0 mph29.0 kmh 29.86 in1011.2 mb 0.00 in0.0 mm 0.00 in/hr0.0 mm/hr 0.00 in0.0 mm
05:00 PM 46.0°F7.8°C 38.5°F3.6°C 75% 15.0 mph SE24.1 kmh SE 16.0 mph25.7 kmh 29.86 in1011.2 mb 0.00 in0.0 mm 0.00 in/hr0.0 mm/hr 0.00 in0.0 mm
04:55 PM 45.9°F7.7°C 38.4°F3.6°C 75% 11.0 mph ESE17.7 kmh ESE 24.0 mph38.6 kmh 29.86 in1011.2 mb 0.00 in0.0 mm 0.00 in/hr0.0 mm/hr 0.00 in0.0 mm
04:50 PM 45.9°F7.7°C 38.8°F3.8°C 76% 11.0 mph ESE17.7 kmh ESE 24.0 mph38.6 kmh 29.87 in1011.5 mb 0.00 in0.0 mm 0.00 in/hr0.0 mm/hr 0.00 in0.0 mm
04:45 PM 45.7°F7.6°C 38.2°F3.4°C 75% 13.0 mph ESE20.9 kmh ESE 24.0 mph38.6 kmh 29.87 in1011.5 mb 0.00 in0.0 mm 0.00 in/hr0.0 mm/hr 0.00 in0.0 mm
04:40 PM 45.7°F7.6°C 38.2°F3.4°C 75% 9.0 mph E14.5 kmh E 19.0 mph30.6 kmh 29.88 in1011.9 mb 0.00 in0.0 mm 0.00 in/hr0.0 mm/hr 0.00 in0.0 mm
04:35 PM 45.6°F7.6°C 38.5°F3.6°C 76% 8.0 mph ESE12.9 kmh ESE 19.0 mph30.6 kmh 29.88 in1011.9 mb 0.00 in0.0 mm 0.00 in/hr0.0 mm/hr 0.00 in0.0 mm
04:30 PM 45.5°F7.5°C 38.4°F3.6°C 76% 7.0 mph SE11.3 kmh SE 13.0 mph20.9 kmh 29.88 in1011.9 mb 0.00 in0.0 mm 0.00 in/hr0.0 mm/hr 0.00 in0.0 mm
04:25 PM 45.5°F7.5°C 38.4°F3.6°C 76% 7.0 mph ESE11.3 kmh ESE 19.0 mph30.6 kmh 29.88 in1011.9 mb 0.00 in0.0 mm 0.00 in/hr0.0 mm/hr 0.00 in0.0 mm
04:20 PM 45.5°F7.5°C 38.1°F3.4°C 75% 10.0 mph ESE16.1 kmh ESE 19.0 mph30.6 kmh 29.88 in1011.9 mb 0.00 in0.0 mm 0.00 in/hr0.0 mm/hr 0.00 in0.0 mm
04:15 PM 45.4°F7.4°C 38.0°F3.3°C 75% 7.0 mph ESE11.3 kmh ESE 18.0 mph29.0 kmh 29.88 in1011.9 mb 0.00 in0.0 mm 0.00 in/hr0.0 mm/hr 0.00 in0.0 mm
04:10 PM 45.5°F7.5°C 38.1°F3.4°C 75% 8.0 mph SE12.9 kmh SE 18.0 mph29.0 kmh 29.88 in1011.9 mb 0.00 in0.0 mm 0.00 in/hr0.0 mm/hr 0.00 in0.0 mm
04:05 PM 45.5°F7.5°C 38.1°F3.4°C 75% 9.0 mph SE14.5 kmh SE 18.0 mph29.0 kmh 29.88 in1011.9 mb 0.00 in0.0 mm 0.00 in/hr0.0 mm/hr 0.00 in0.0 mm
04:00 PM 45.5°F7.5°C 37.7°F3.2°C 74% 14.0 mph SE22.5 kmh SE 16.0 mph25.7 kmh 29.87 in1011.5 mb 0.00 in0.0 mm 0.00 in/hr0.0 mm/hr 0.00 in0.0 mm
03:55 PM 45.5°F7.5°C 37.7°F3.2°C 74% 8.0 mph ESE12.9 kmh ESE 21.0 mph33.8 kmh 29.88 in1011.9 mb 0.00 in0.0 mm 0.00 in/hr0.0 mm/hr 0.00 in0.0 mm
03:50 PM 45.4°F7.4°C 37.6°F3.1°C 74% 13.0 mph SE20.9 kmh SE 21.0 mph33.8 kmh 29.88 in1011.9 mb 0.00 in0.0 mm 0.00 in/hr0.0 mm/hr 0.00 in0.0 mm
03:45 PM 45.3°F7.4°C 37.5°F3.1°C 74% 9.0 mph ESE14.5 kmh ESE 19.0 mph30.6 kmh 29.88 in1011.9 mb 0.00 in0.0 mm 0.00 in/hr0.0 mm/hr 0.00 in0.0 mm
03:40 PM 45.2°F7.3°C 37.4°F3.0°C 74% 8.0 mph SE12.9 kmh SE 19.0 mph30.6 kmh 29.88 in1011.9 mb 0.00 in0.0 mm 0.00 in/hr0.0 mm/hr 0.00 in0.0 mm
03:35 PM 45.2°F7.3°C 37.8°F3.2°C 75% 11.0 mph E17.7 kmh E 19.0 mph30.6 kmh 29.89 in1012.2 mb 0.00 in0.0 mm 0.00 in/hr0.0 mm/hr 0.00 in0.0 mm
03:30 PM 45.1°F7.3°C 37.3°F2.9°C 74% 13.0 mph E20.9 kmh E 15.0 mph24.1 kmh 29.89 in1012.2 mb 0.00 in0.0 mm 0.00 in/hr0.0 mm/hr 0.00 in0.0 mm
03:25 PM 45.0°F7.2°C 37.2°F2.9°C 74% 13.0 mph ESE20.9 kmh ESE 22.0 mph35.4 kmh 29.90 in1012.5 mb 0.00 in0.0 mm 0.00 in/hr0.0 mm/hr 0.00 in0.0 mm
03:20 PM 45.0°F7.2°C 37.6°F3.1°C 75% 11.0 mph ESE17.7 kmh ESE 22.0 mph35.4 kmh 29.91 in1012.9 mb 0.00 in0.0 mm 0.00 in/hr0.0 mm/hr 0.00 in0.0 mm
03:15 PM 45.0°F7.2°C 37.6°F3.1°C 75% 11.0 mph SE17.7 kmh SE 22.0 mph35.4 kmh 29.91 in1012.9 mb 0.00 in0.0 mm 0.00 in/hr0.0 mm/hr 0.00 in0.0 mm
03:10 PM 44.9°F7.2°C 37.5°F3.1°C 75% 8.0 mph ESE12.9 kmh ESE 22.0 mph35.4 kmh 29.91 in1012.9 mb 0.00 in0.0 mm 0.00 in/hr0.0 mm/hr 0.00 in0.0 mm
03:05 PM 44.9°F7.2°C 37.1°F2.8°C 74% 8.0 mph E12.9 kmh E 20.0 mph32.2 kmh 29.92 in1013.2 mb 0.00 in0.0 mm 0.00 in/hr0.0 mm/hr 0.00 in0.0 mm
03:00 PM 44.8°F7.1°C 37.0°F2.8°C 74% 13.0 mph ESE20.9 kmh ESE 20.0 mph32.2 kmh 29.91 in1012.9 mb 0.00 in0.0 mm 0.00 in/hr0.0 mm/hr 0.00 in0.0 mm
02:55 PM 44.8°F7.1°C 37.4°F3.0°C 75% 5.0 mph SE8.0 kmh SE 25.0 mph40.2 kmh 29.91 in1012.9 mb 0.00 in0.0 mm 0.00 in/hr0.0 mm/hr 0.00 in0.0 mm
02:50 PM 44.6°F7.0°C 37.2°F2.9°C 75% 11.0 mph ESE17.7 kmh ESE 25.0 mph40.2 kmh 29.91 in1012.9 mb 0.00 in0.0 mm 0.00 in/hr0.0 mm/hr 0.00 in0.0 mm
02:45 PM 44.6°F7.0°C 37.5°F3.1°C 76% 7.0 mph SE11.3 kmh SE 25.0 mph40.2 kmh 29.92 in1013.2 mb 0.00 in0.0 mm 0.00 in/hr0.0 mm/hr 0.00 in0.0 mm
02:40 PM 44.4°F6.9°C 37.3°F2.9°C 76% 11.0 mph ESE17.7 kmh ESE 25.0 mph40.2 kmh 29.91 in1012.9 mb 0.00 in0.0 mm 0.00 in/hr0.0 mm/hr 0.00 in0.0 mm
02:35 PM 44.3°F6.8°C 37.2°F2.9°C 76% 21.0 mph E33.8 kmh E 25.0 mph40.2 kmh 29.90 in1012.5 mb 0.00 in0.0 mm 0.00 in/hr0.0 mm/hr 0.00 in0.0 mm
02:30 PM 44.6°F7.0°C 37.5°F3.1°C 76% 8.0 mph E12.9 kmh E 15.0 mph24.1 kmh 29.90 in1012.5 mb 0.00 in0.0 mm 0.00 in/hr0.0 mm/hr 0.00 in0.0 mm
02:25 PM 44.7°F7.1°C 36.9°F2.7°C 74% 9.0 mph ESE14.5 kmh ESE 24.0 mph38.6 kmh 29.91 in1012.9 mb 0.00 in0.0 mm 0.00 in/hr0.0 mm/hr 0.00 in0.0 mm
02:20 PM 44.8°F7.1°C 37.0°F2.8°C 74% 9.0 mph E14.5 kmh E 24.0 mph38.6 kmh 29.92 in1013.2 mb 0.00 in0.0 mm 0.00 in/hr0.0 mm/hr 0.00 in0.0 mm
02:15 PM 44.9°F7.2°C 36.8°F2.7°C 73% 15.0 mph E24.1 kmh E 24.0 mph38.6 kmh 29.92 in1013.2 mb 0.00 in0.0 mm 0.00 in/hr0.0 mm/hr 0.00 in0.0 mm
02:10 PM 44.9°F7.2°C 36.8°F2.7°C 73% 10.0 mph ESE16.1 kmh ESE 19.0 mph30.6 kmh 29.92 in1013.2 mb 0.00 in0.0 mm 0.00 in/hr0.0 mm/hr 0.00 in0.0 mm
02:05 PM 44.9°F7.2°C 36.8°F2.7°C 73% 5.0 mph SE8.0 kmh SE 18.0 mph29.0 kmh 29.92 in1013.2 mb 0.00 in0.0 mm 0.00 in/hr0.0 mm/hr 0.00 in0.0 mm
02:00 PM 45.0°F7.2°C 36.9°F2.7°C 73% 8.0 mph SE12.9 kmh SE 17.0 mph27.4 kmh 29.92 in1013.2 mb 0.00 in0.0 mm 0.00 in/hr0.0 mm/hr 0.00 in0.0 mm
01:55 PM 45.0°F7.2°C 36.9°F2.7°C 73% 10.0 mph SE16.1 kmh SE 11.0 mph17.7 kmh 29.92 in1013.2 mb 0.00 in0.0 mm 0.00 in/hr0.0 mm/hr 0.00 in0.0 mm
01:50 PM 45.0°F7.2°C 36.9°F2.7°C 73% 11.0 mph ESE17.7 kmh ESE 23.0 mph37.0 kmh 29.92 in1013.2 mb 0.00 in0.0 mm 0.00 in/hr0.0 mm/hr 0.00 in0.0 mm
01:45 PM 44.9°F7.2°C 36.8°F2.7°C 73% 13.0 mph ESE20.9 kmh ESE 23.0 mph37.0 kmh 29.92 in1013.2 mb 0.00 in0.0 mm 0.00 in/hr0.0 mm/hr 0.00 in0.0 mm
01:40 PM 44.9°F7.2°C 37.1°F2.8°C 74% 15.0 mph SE24.1 kmh SE 23.0 mph37.0 kmh 29.92 in1013.2 mb 0.00 in0.0 mm 0.00 in/hr0.0 mm/hr 0.00 in0.0 mm
01:35 PM 44.9°F7.2°C 36.8°F2.7°C 73% 15.0 mph ESE24.1 kmh ESE 23.0 mph37.0 kmh 29.92 in1013.2 mb 0.00 in0.0 mm 0.00 in/hr0.0 mm/hr 0.00 in0.0 mm
01:30 PM 44.9°F7.2°C 36.8°F2.7°C 73% 10.0 mph SE16.1 kmh SE 18.0 mph29.0 kmh 29.93 in1013.5 mb 0.00 in0.0 mm 0.00 in/hr0.0 mm/hr 0.00 in0.0 mm
01:25 PM 44.9°F7.2°C 37.1°F2.8°C 74% 13.0 mph E20.9 kmh E 21.0 mph33.8 kmh 29.94 in1013.9 mb 0.00 in0.0 mm 0.00 in/hr0.0 mm/hr 0.00 in0.0 mm
01:20 PM 44.8°F7.1°C 37.0°F2.8°C 74% 11.0 mph SE17.7 kmh SE 21.0 mph33.8 kmh 29.94 in1013.9 mb 0.00 in0.0 mm 0.00 in/hr0.0 mm/hr 0.00 in0.0 mm
01:15 PM 44.8°F7.1°C 37.0°F2.8°C 74% 5.0 mph ESE8.0 kmh ESE 21.0 mph33.8 kmh 29.94 in1013.9 mb 0.00 in0.0 mm 0.00 in/hr0.0 mm/hr 0.00 in0.0 mm
01:10 PM 44.7°F7.1°C 37.3°F2.9°C 75% 8.0 mph ESE12.9 kmh ESE 19.0 mph30.6 kmh 29.94 in1013.9 mb 0.00 in0.0 mm 0.00 in/hr0.0 mm/hr 0.00 in0.0 mm
01:05 PM 44.7°F7.1°C 37.3°F2.9°C 75% 7.0 mph SE11.3 kmh SE 16.0 mph25.7 kmh 29.94 in1013.9 mb 0.00 in0.0 mm 0.00 in/hr0.0 mm/hr 0.00 in0.0 mm
01:00 PM 44.7°F7.1°C 37.3°F2.9°C 75% 11.0 mph ESE17.7 kmh ESE 16.0 mph25.7 kmh 29.95 in1014.2 mb 0.00 in0.0 mm 0.00 in/hr0.0 mm/hr 0.00 in0.0 mm
12:55 PM 44.8°F7.1°C 37.4°F3.0°C 75% 9.0 mph E14.5 kmh E 26.0 mph41.8 kmh 29.95 in1014.2 mb 0.00 in0.0 mm 0.00 in/hr0.0 mm/hr 0.00 in0.0 mm
12:50 PM 44.8°F7.1°C 37.0°F2.8°C 74% 11.0 mph ESE17.7 kmh ESE 26.0 mph41.8 kmh 29.94 in1013.9 mb 0.00 in0.0 mm 0.00 in/hr0.0 mm/hr 0.00 in0.0 mm
12:45 PM 44.9°F7.2°C 37.1°F2.8°C 74% 11.0 mph ESE17.7 kmh ESE 26.0 mph41.8 kmh 29.95 in1014.2 mb 0.00 in0.0 mm 0.00 in/hr0.0 mm/hr 0.00 in0.0 mm
12:40 PM 45.0°F7.2°C 37.2°F2.9°C 74% 10.0 mph SE16.1 kmh SE 22.0 mph35.4 kmh 29.95 in1014.2 mb 0.00 in0.0 mm 0.00 in/hr0.0 mm/hr 0.00 in0.0 mm
12:35 PM 45.0°F7.2°C 37.2°F2.9°C 74% 14.0 mph SSE22.5 kmh SSE 22.0 mph35.4 kmh 29.96 in1014.6 mb 0.00 in0.0 mm 0.00 in/hr0.0 mm/hr 0.00 in0.0 mm
12:30 PM 45.1°F7.3°C 37.3°F2.9°C 74% 14.0 mph SE22.5 kmh SE 22.0 mph35.4 kmh 29.96 in1014.6 mb 0.00 in0.0 mm 0.00 in/hr0.0 mm/hr 0.00 in0.0 mm
12:25 PM 45.2°F7.3°C 37.4°F3.0°C 74% 7.0 mph ESE11.3 kmh ESE 20.0 mph32.2 kmh 29.96 in1014.6 mb 0.00 in0.0 mm 0.00 in/hr0.0 mm/hr 0.00 in0.0 mm
12:20 PM 45.1°F7.3°C 37.3°F2.9°C 74% 10.0 mph E16.1 kmh E 20.0 mph32.2 kmh 29.96 in1014.6 mb 0.00 in0.0 mm 0.00 in/hr0.0 mm/hr 0.00 in0.0 mm
12:15 PM 45.1°F7.3°C 37.7°F3.2°C 75% 8.0 mph SE12.9 kmh SE 20.0 mph32.2 kmh 29.96 in1014.6 mb 0.00 in0.0 mm 0.00 in/hr0.0 mm/hr 0.00 in0.0 mm
12:10 PM 45.1°F7.3°C 37.3°F2.9°C 74% 12.0 mph ESE19.3 kmh ESE 19.0 mph30.6 kmh 29.96 in1014.6 mb 0.00 in0.0 mm 0.00 in/hr0.0 mm/hr 0.00 in0.0 mm
12:05 PM 45.2°F7.3°C 37.4°F3.0°C 74% 9.0 mph ESE14.5 kmh ESE 18.0 mph29.0 kmh 29.96 in1014.6 mb 0.00 in0.0 mm 0.00 in/hr0.0 mm/hr 0.00 in0.0 mm
12:00 PM 45.4°F7.4°C 37.6°F3.1°C 74% 14.0 mph SE22.5 kmh SE 17.0 mph27.4 kmh 29.96 in1014.6 mb 0.00 in0.0 mm 0.00 in/hr0.0 mm/hr 0.00 in0.0 mm
11:55 AM 45.4°F7.4°C 37.3°F2.9°C 73% 4.0 mph ESE6.4 kmh ESE 21.0 mph33.8 kmh 29.96 in1014.6 mb 0.00 in0.0 mm 0.00 in/hr0.0 mm/hr 0.00 in0.0 mm
11:50 AM 45.4°F7.4°C 37.3°F2.9°C 73% 5.0 mph ESE8.0 kmh ESE 21.0 mph33.8 kmh 29.96 in1014.6 mb 0.00 in0.0 mm 0.00 in/hr0.0 mm/hr 0.00 in0.0 mm
11:45 AM 45.4°F7.4°C 37.6°F3.1°C 74% 8.0 mph SE12.9 kmh SE 19.0 mph30.6 kmh 29.96 in1014.6 mb 0.00 in0.0 mm 0.00 in/hr0.0 mm/hr 0.00 in0.0 mm
11:40 AM 45.5°F7.5°C 37.7°F3.2°C 74% 13.0 mph ESE20.9 kmh ESE 17.0 mph27.4 kmh 29.97 in1014.9 mb 0.00 in0.0 mm 0.00 in/hr0.0 mm/hr 0.00 in0.0 mm
11:35 AM 45.5°F7.5°C 37.7°F3.2°C 74% 13.0 mph ESE20.9 kmh ESE 17.0 mph27.4 kmh 29.97 in1014.9 mb 0.00 in0.0 mm 0.00 in/hr0.0 mm/hr 0.00 in0.0 mm
11:30 AM 45.6°F7.6°C 38.2°F3.4°C 75% 9.0 mph ESE14.5 kmh ESE 16.0 mph25.7 kmh 29.97 in1014.9 mb 0.00 in0.0 mm 0.00 in/hr0.0 mm/hr 0.00 in0.0 mm
11:25 AM 45.4°F7.4°C 38.3°F3.5°C 76% 10.0 mph E16.1 kmh E 26.0 mph41.8 kmh 29.96 in1014.6 mb 0.00 in0.0 mm 0.00 in/hr0.0 mm/hr 0.00 in0.0 mm
11:20 AM 45.2°F7.3°C 38.1°F3.4°C 76% 13.0 mph SE20.9 kmh SE 26.0 mph41.8 kmh 29.96 in1014.6 mb 0.00 in0.0 mm 0.00 in/hr0.0 mm/hr 0.00 in0.0 mm
11:15 AM 45.0°F7.2°C 38.2°F3.4°C 77% 8.0 mph E12.9 kmh E 26.0 mph41.8 kmh 29.96 in1014.6 mb 0.00 in0.0 mm 0.00 in/hr0.0 mm/hr 0.00 in0.0 mm
11:10 AM 44.9°F7.2°C 38.1°F3.4°C 77% 11.0 mph ESE17.7 kmh ESE 21.0 mph33.8 kmh 29.96 in1014.6 mb 0.00 in0.0 mm 0.00 in/hr0.0 mm/hr 0.00 in0.0 mm
11:05 AM 44.6°F7.0°C 38.2°F3.4°C 78% 11.0 mph ESE17.7 kmh ESE 21.0 mph33.8 kmh 29.97 in1014.9 mb 0.00 in0.0 mm 0.00 in/hr0.0 mm/hr 0.00 in0.0 mm
11:00 AM 44.2°F6.8°C 38.1°F3.4°C 79% 13.0 mph SE20.9 kmh SE 16.0 mph25.7 kmh 29.97 in1014.9 mb 0.00 in0.0 mm 0.00 in/hr0.0 mm/hr 0.00 in0.0 mm
10:55 AM 43.9°F6.6°C 38.1°F3.4°C 80% 11.0 mph E17.7 kmh E 24.0 mph38.6 kmh 29.97 in1014.9 mb 0.00 in0.0 mm 0.00 in/hr0.0 mm/hr 0.00 in0.0 mm
10:50 AM 43.8°F6.6°C 37.7°F3.2°C 79% 22.0 mph ESE35.4 kmh ESE 22.0 mph35.4 kmh 29.97 in1014.9 mb 0.00 in0.0 mm 0.00 in/hr0.0 mm/hr 0.00 in0.0 mm
10:45 AM 43.8°F6.6°C 37.4°F3.0°C 78% 14.0 mph E22.5 kmh E 20.0 mph32.2 kmh 29.97 in1014.9 mb 0.00 in0.0 mm 0.00 in/hr0.0 mm/hr 0.00 in0.0 mm
10:40 AM 43.7°F6.5°C 37.3°F2.9°C 78% 12.0 mph ESE19.3 kmh ESE 20.0 mph32.2 kmh 29.97 in1014.9 mb 0.00 in0.0 mm 0.00 in/hr0.0 mm/hr 0.00 in0.0 mm
10:35 AM 43.7°F6.5°C 37.6°F3.1°C 79% 7.0 mph ESE11.3 kmh ESE 18.0 mph29.0 kmh 29.98 in1015.2 mb 0.00 in0.0 mm 0.00 in/hr0.0 mm/hr 0.00 in0.0 mm
10:30 AM 43.6°F6.4°C 37.5°F3.1°C 79% 10.0 mph SE16.1 kmh SE 15.0 mph24.1 kmh 29.98 in1015.2 mb 0.00 in0.0 mm 0.00 in/hr0.0 mm/hr 0.00 in0.0 mm
10:25 AM 43.5°F6.4°C 37.4°F3.0°C 79% 7.0 mph SE11.3 kmh SE 15.0 mph24.1 kmh 29.98 in1015.2 mb 0.00 in0.0 mm 0.00 in/hr0.0 mm/hr 0.00 in0.0 mm
10:20 AM 43.4°F6.3°C 37.7°F3.2°C 80% 10.0 mph SE16.1 kmh SE 15.0 mph24.1 kmh 29.98 in1015.2 mb 0.00 in0.0 mm 0.00 in/hr0.0 mm/hr 0.00 in0.0 mm
10:15 AM 43.2°F6.2°C 37.5°F3.1°C 80% 8.0 mph E12.9 kmh E 15.0 mph24.1 kmh 29.99 in1015.6 mb 0.00 in0.0 mm 0.00 in/hr0.0 mm/hr 0.00 in0.0 mm
10:10 AM 43.1°F6.2°C 37.4°F3.0°C 80% 6.0 mph SE9.7 kmh SE 14.0 mph22.5 kmh 29.99 in1015.6 mb 0.00 in0.0 mm 0.00 in/hr0.0 mm/hr 0.00 in0.0 mm
10:05 AM 43.1°F6.2°C 37.7°F3.2°C 81% 4.0 mph SE6.4 kmh SE 14.0 mph22.5 kmh 30.00 in1015.9 mb 0.00 in0.0 mm 0.00 in/hr0.0 mm/hr 0.00 in0.0 mm
10:00 AM 43.2°F6.2°C 37.5°F3.1°C 80% 6.0 mph SE9.7 kmh SE 14.0 mph22.5 kmh 30.01 in1016.3 mb 0.00 in0.0 mm 0.00 in/hr0.0 mm/hr 0.00 in0.0 mm
09:55 AM 43.1°F6.2°C 37.4°F3.0°C 80% 8.0 mph SE12.9 kmh SE 19.0 mph30.6 kmh 30.01 in1016.3 mb 0.00 in0.0 mm 0.00 in/hr0.0 mm/hr 0.00 in0.0 mm
09:50 AM 43.1°F6.2°C 37.0°F2.8°C 79% 8.0 mph SE12.9 kmh SE 19.0 mph30.6 kmh 30.00 in1015.9 mb 0.00 in0.0 mm 0.00 in/hr0.0 mm/hr 0.00 in0.0 mm
09:45 AM 43.0°F6.1°C 37.3°F2.9°C 80% 7.0 mph E11.3 kmh E 18.0 mph29.0 kmh 30.00 in1015.9 mb 0.00 in0.0 mm 0.00 in/hr0.0 mm/hr 0.00 in0.0 mm
09:40 AM 43.0°F6.1°C 37.6°F3.1°C 81% 7.0 mph SE11.3 kmh SE 18.0 mph29.0 kmh 30.00 in1015.9 mb 0.00 in0.0 mm 0.00 in/hr0.0 mm/hr 0.00 in0.0 mm
09:35 AM 43.0°F6.1°C 37.3°F2.9°C 80% 13.0 mph SE20.9 kmh SE 13.0 mph20.9 kmh 30.00 in1015.9 mb 0.00 in0.0 mm 0.00 in/hr0.0 mm/hr 0.00 in0.0 mm
09:30 AM 43.1°F6.2°C 37.4°F3.0°C 80% 8.0 mph SSE12.9 kmh SSE 11.0 mph17.7 kmh 30.01 in1016.3 mb 0.00 in0.0 mm 0.00 in/hr0.0 mm/hr 0.00 in0.0 mm
09:25 AM 43.3°F6.3°C 37.2°F2.9°C 79% 6.0 mph SE9.7 kmh SE 20.0 mph32.2 kmh 30.02 in1016.6 mb 0.00 in0.0 mm 0.00 in/hr0.0 mm/hr 0.00 in0.0 mm
09:20 AM 43.5°F6.4°C 36.8°F2.7°C 77% 6.0 mph SE9.7 kmh SE 14.0 mph22.5 kmh 30.02 in1016.6 mb 0.00 in0.0 mm 0.00 in/hr0.0 mm/hr 0.00 in0.0 mm
09:15 AM 43.9°F6.6°C 36.8°F2.7°C 76% 5.0 mph SE8.0 kmh SE 14.0 mph22.5 kmh 30.02 in1016.6 mb 0.00 in0.0 mm 0.00 in/hr0.0 mm/hr 0.00 in0.0 mm
09:10 AM 44.3°F6.8°C 36.6°F2.6°C 74% 5.0 mph SE8.0 kmh SE 14.0 mph22.5 kmh 30.03 in1016.9 mb 0.00 in0.0 mm 0.00 in/hr0.0 mm/hr 0.00 in0.0 mm
09:05 AM 44.6°F7.0°C 36.5°F2.5°C 73% 4.0 mph S6.4 kmh S 14.0 mph22.5 kmh 30.03 in1016.9 mb 0.00 in0.0 mm 0.00 in/hr0.0 mm/hr 0.00 in0.0 mm
09:00 AM 44.8°F7.1°C 36.0°F2.2°C 71% 9.0 mph SE14.5 kmh SE 14.0 mph22.5 kmh 30.02 in1016.6 mb 0.00 in0.0 mm 0.00 in/hr0.0 mm/hr 0.00 in0.0 mm
08:55 AM 45.3°F7.4°C 35.7°F2.1°C 69% 7.0 mph SSE11.3 kmh SSE 19.0 mph30.6 kmh 30.02 in1016.6 mb 0.00 in0.0 mm 0.00 in/hr0.0 mm/hr 0.00 in0.0 mm
08:50 AM 45.7°F7.6°C 35.4°F1.9°C 67% 8.0 mph SSE12.9 kmh SSE 19.0 mph30.6 kmh 30.02 in1016.6 mb 0.00 in0.0 mm 0.00 in/hr0.0 mm/hr 0.00 in0.0 mm
08:45 AM 45.9°F7.7°C 34.8°F1.6°C 65% 4.0 mph SE6.4 kmh SE 19.0 mph30.6 kmh 30.01 in1016.3 mb 0.00 in0.0 mm 0.00 in/hr0.0 mm/hr 0.00 in0.0 mm
08:40 AM 46.1°F7.8°C 34.2°F1.2°C 63% 7.0 mph SE11.3 kmh SE 19.0 mph30.6 kmh 30.02 in1016.6 mb 0.00 in0.0 mm 0.00 in/hr0.0 mm/hr 0.00 in0.0 mm
08:35 AM 46.1°F7.8°C 34.2°F1.2°C 63% 9.0 mph SSE14.5 kmh SSE 18.0 mph29.0 kmh 30.02 in1016.6 mb 0.00 in0.0 mm 0.00 in/hr0.0 mm/hr 0.00 in0.0 mm
08:30 AM 46.1°F7.8°C 34.6°F1.4°C 64% 11.0 mph SE17.7 kmh SE 14.0 mph22.5 kmh 30.02 in1016.6 mb 0.00 in0.0 mm 0.00 in/hr0.0 mm/hr 0.00 in0.0 mm
08:25 AM 46.1°F7.8°C 34.6°F1.4°C 64% 7.0 mph SE11.3 kmh SE 19.0 mph30.6 kmh 30.02 in1016.6 mb 0.00 in0.0 mm 0.00 in/hr0.0 mm/hr 0.00 in0.0 mm
08:20 AM 46.1°F7.8°C 34.6°F1.4°C 64% 5.0 mph SE8.0 kmh SE 19.0 mph30.6 kmh 30.03 in1016.9 mb 0.00 in0.0 mm 0.00 in/hr0.0 mm/hr 0.00 in0.0 mm
08:15 AM 46.1°F7.8°C 34.6°F1.4°C 64% 7.0 mph ESE11.3 kmh ESE 16.0 mph25.7 kmh 30.03 in1016.9 mb 0.00 in0.0 mm 0.00 in/hr0.0 mm/hr 0.00 in0.0 mm
08:10 AM 46.1°F7.8°C 34.2°F1.2°C 63% 9.0 mph SSE14.5 kmh SSE 16.0 mph25.7 kmh 30.03 in1016.9 mb 0.00 in0.0 mm 0.00 in/hr0.0 mm/hr 0.00 in0.0 mm
08:05 AM 46.0°F7.8°C 34.5°F1.4°C 64% 7.0 mph SE11.3 kmh SE 16.0 mph25.7 kmh 30.03 in1016.9 mb 0.00 in0.0 mm 0.00 in/hr0.0 mm/hr 0.00 in0.0 mm
08:00 AM 45.9°F7.7°C 34.8°F1.6°C 65% 4.0 mph SE6.4 kmh SE 9.0 mph14.5 kmh 30.03 in1016.9 mb 0.00 in0.0 mm 0.00 in/hr0.0 mm/hr 0.00 in0.0 mm
07:55 AM 45.8°F7.7°C 35.1°F1.7°C 66% 7.0 mph E11.3 kmh E 16.0 mph25.7 kmh 30.03 in1016.9 mb 0.00 in0.0 mm 0.00 in/hr0.0 mm/hr 0.00 in0.0 mm
07:50 AM 45.7°F7.6°C 35.0°F1.7°C 66% 9.0 mph SE14.5 kmh SE 16.0 mph25.7 kmh 30.03 in1016.9 mb 0.00 in0.0 mm 0.00 in/hr0.0 mm/hr 0.00 in0.0 mm
07:45 AM 45.7°F7.6°C 35.0°F1.7°C 66% 5.0 mph SE8.0 kmh SE 14.0 mph22.5 kmh 30.03 in1016.9 mb 0.00 in0.0 mm 0.00 in/hr0.0 mm/hr 0.00 in0.0 mm
07:40 AM 45.7°F7.6°C 35.0°F1.7°C 66% 7.0 mph ESE11.3 kmh ESE 14.0 mph22.5 kmh 30.03 in1016.9 mb 0.00 in0.0 mm 0.00 in/hr0.0 mm/hr 0.00 in0.0 mm
07:35 AM 45.7°F7.6°C 35.0°F1.7°C 66% 6.0 mph SE9.7 kmh SE 14.0 mph22.5 kmh 30.03 in1016.9 mb 0.00 in0.0 mm 0.00 in/hr0.0 mm/hr 0.00 in0.0 mm
07:30 AM 45.8°F7.7°C 34.7°F1.5°C 65% 5.0 mph SE8.0 kmh SE 9.0 mph14.5 kmh 30.03 in1016.9 mb 0.00 in0.0 mm 0.00 in/hr0.0 mm/hr 0.00 in0.0 mm
07:25 AM 45.8°F7.7°C 34.7°F1.5°C 65% 10.0 mph ESE16.1 kmh ESE 15.0 mph24.1 kmh 30.03 in1016.9 mb 0.00 in0.0 mm 0.00 in/hr0.0 mm/hr 0.00 in0.0 mm
07:20 AM 45.7°F7.6°C 34.6°F1.4°C 65% 10.0 mph ESE16.1 kmh ESE 15.0 mph24.1 kmh 30.02 in1016.6 mb 0.00 in0.0 mm 0.00 in/hr0.0 mm/hr 0.00 in0.0 mm
07:15 AM 45.8°F7.7°C 34.7°F1.5°C 65% 7.0 mph ESE11.3 kmh ESE 14.0 mph22.5 kmh 30.02 in1016.6 mb 0.00 in0.0 mm 0.00 in/hr0.0 mm/hr 0.00 in0.0 mm
07:10 AM 45.7°F7.6°C 34.6°F1.4°C 65% 7.0 mph ESE11.3 kmh ESE 14.0 mph22.5 kmh 30.02 in1016.6 mb 0.00 in0.0 mm 0.00 in/hr0.0 mm/hr 0.00 in0.0 mm
07:05 AM 45.7°F7.6°C 35.0°F1.7°C 66% 7.0 mph SE11.3 kmh SE 13.0 mph20.9 kmh 30.02 in1016.6 mb 0.00 in0.0 mm 0.00 in/hr0.0 mm/hr 0.00 in0.0 mm
07:00 AM 45.6°F7.6°C 34.9°F1.6°C 66% 9.0 mph SE14.5 kmh SE 10.0 mph16.1 kmh 30.02 in1016.6 mb 0.00 in0.0 mm 0.00 in/hr0.0 mm/hr 0.00 in0.0 mm
06:55 AM 45.5°F7.5°C 35.2°F1.8°C 67% 5.0 mph SE8.0 kmh SE 12.0 mph19.3 kmh 30.03 in1016.9 mb 0.00 in0.0 mm 0.00 in/hr0.0 mm/hr 0.00 in0.0 mm
06:50 AM 45.4°F7.4°C 35.1°F1.7°C 67% 8.0 mph ESE12.9 kmh ESE 12.0 mph19.3 kmh 30.03 in1016.9 mb 0.00 in0.0 mm 0.00 in/hr0.0 mm/hr 0.00 in0.0 mm
06:45 AM 45.3°F7.4°C 35.4°F1.9°C 68% 3.0 mph E4.8 kmh E 10.0 mph16.1 kmh 30.04 in1017.3 mb 0.00 in0.0 mm 0.00 in/hr0.0 mm/hr 0.00 in0.0 mm
06:40 AM 45.3°F7.4°C 35.4°F1.9°C 68% 4.0 mph SE6.4 kmh SE 9.0 mph14.5 kmh 30.03 in1016.9 mb 0.00 in0.0 mm 0.00 in/hr0.0 mm/hr 0.00 in0.0 mm
06:35 AM 45.2°F7.3°C 35.7°F2.1°C 69% 5.0 mph SE8.0 kmh SE 9.0 mph14.5 kmh 30.03 in1016.9 mb 0.00 in0.0 mm 0.00 in/hr0.0 mm/hr 0.00 in0.0 mm
06:30 AM 45.3°F7.4°C 35.7°F2.1°C 69% 3.0 mph SE4.8 kmh SE 5.0 mph8.0 kmh 30.04 in1017.3 mb 0.00 in0.0 mm 0.00 in/hr0.0 mm/hr 0.00 in0.0 mm
06:25 AM 45.4°F7.4°C 35.8°F2.1°C 69% 3.0 mph ESE4.8 kmh ESE 9.0 mph14.5 kmh 30.04 in1017.3 mb 0.00 in0.0 mm 0.00 in/hr0.0 mm/hr 0.00 in0.0 mm
06:20 AM 45.4°F7.4°C 35.5°F1.9°C 68% 4.0 mph ESE6.4 kmh ESE 9.0 mph14.5 kmh 30.03 in1016.9 mb 0.00 in0.0 mm 0.00 in/hr0.0 mm/hr 0.00 in0.0 mm
06:15 AM 45.5°F7.5°C 35.6°F2.0°C 68% 6.0 mph E9.7 kmh E 9.0 mph14.5 kmh 30.03 in1016.9 mb 0.00 in0.0 mm 0.00 in/hr0.0 mm/hr 0.00 in0.0 mm
06:10 AM 45.4°F7.4°C 35.5°F1.9°C 68% 2.0 mph SE3.2 kmh SE 9.0 mph14.5 kmh 30.02 in1016.6 mb 0.00 in0.0 mm 0.00 in/hr0.0 mm/hr 0.00 in0.0 mm
06:05 AM 45.4°F7.4°C 35.5°F1.9°C 68% 4.0 mph E6.4 kmh E 9.0 mph14.5 kmh 30.02 in1016.6 mb 0.00 in0.0 mm 0.00 in/hr0.0 mm/hr 0.00 in0.0 mm
06:00 AM 45.4°F7.4°C 36.9°F2.7°C 72% 8.0 mph SE12.9 kmh SE 9.0 mph14.5 kmh 30.02 in1016.6 mb 0.00 in0.0 mm 0.00 in/hr0.0 mm/hr 0.00 in0.0 mm
05:55 AM 45.5°F7.5°C 35.9°F2.2°C 69% 5.0 mph SE8.0 kmh SE 11.0 mph17.7 kmh 30.02 in1016.6 mb 0.00 in0.0 mm 0.00 in/hr0.0 mm/hr 0.00 in0.0 mm
05:50 AM 45.6°F7.6°C 35.7°F2.1°C 68% 8.0 mph ESE12.9 kmh ESE 11.0 mph17.7 kmh 30.01 in1016.3 mb 0.00 in0.0 mm 0.00 in/hr0.0 mm/hr 0.00 in0.0 mm
05:45 AM 45.8°F7.7°C 35.9°F2.2°C 68% 5.0 mph SE8.0 kmh SE 11.0 mph17.7 kmh 30.02 in1016.6 mb 0.00 in0.0 mm 0.00 in/hr0.0 mm/hr 0.00 in0.0 mm
05:40 AM 45.9°F7.7°C 36.0°F2.2°C 68% 5.0 mph E8.0 kmh E 10.0 mph16.1 kmh 30.02 in1016.6 mb 0.00 in0.0 mm 0.00 in/hr0.0 mm/hr 0.00 in0.0 mm
05:35 AM 46.0°F7.8°C 35.3°F1.8°C 66% 7.0 mph E11.3 kmh E 10.0 mph16.1 kmh 30.02 in1016.6 mb 0.00 in0.0 mm 0.00 in/hr0.0 mm/hr 0.00 in0.0 mm
05:30 AM 46.2°F7.9°C 35.5°F1.9°C 66% 5.0 mph SSE8.0 kmh SSE 8.0 mph12.9 kmh 30.01 in1016.3 mb 0.00 in0.0 mm 0.00 in/hr0.0 mm/hr 0.00 in0.0 mm
05:25 AM 46.4°F8.0°C 35.3°F1.8°C 65% 4.0 mph SE6.4 kmh SE 13.0 mph20.9 kmh 30.01 in1016.3 mb 0.00 in0.0 mm 0.00 in/hr0.0 mm/hr 0.00 in0.0 mm
05:20 AM 46.5°F8.1°C 35.0°F1.7°C 64% 7.0 mph ESE11.3 kmh ESE 13.0 mph20.9 kmh 30.01 in1016.3 mb 0.00 in0.0 mm 0.00 in/hr0.0 mm/hr 0.00 in0.0 mm
05:15 AM 46.6°F8.1°C 35.1°F1.7°C 64% 7.0 mph ESE11.3 kmh ESE 13.0 mph20.9 kmh 30.01 in1016.3 mb 0.00 in0.0 mm 0.00 in/hr0.0 mm/hr 0.00 in0.0 mm
05:10 AM 46.7°F8.2°C 34.8°F1.6°C 63% 5.0 mph ESE8.0 kmh ESE 13.0 mph20.9 kmh 30.01 in1016.3 mb 0.00 in0.0 mm 0.00 in/hr0.0 mm/hr 0.00 in0.0 mm
05:05 AM 46.8°F8.2°C 34.5°F1.4°C 62% 9.0 mph ESE14.5 kmh ESE 11.0 mph17.7 kmh 30.01 in1016.3 mb 0.00 in0.0 mm 0.00 in/hr0.0 mm/hr 0.00 in0.0 mm
05:00 AM 47.0°F8.3°C 34.7°F1.5°C 62% 8.0 mph ESE12.9 kmh ESE 9.0 mph14.5 kmh 30.01 in1016.3 mb 0.00 in0.0 mm 0.00 in/hr0.0 mm/hr 0.00 in0.0 mm
04:55 AM 47.2°F8.4°C 34.9°F1.6°C 62% 8.0 mph ESE12.9 kmh ESE 14.0 mph22.5 kmh 30.01 in1016.3 mb 0.00 in0.0 mm 0.00 in/hr0.0 mm/hr 0.00 in0.0 mm
04:50 AM 47.4°F8.6°C 34.6°F1.4°C 61% 8.0 mph SE12.9 kmh SE 14.0 mph22.5 kmh 30.01 in1016.3 mb 0.00 in0.0 mm 0.00 in/hr0.0 mm/hr 0.00 in0.0 mm
04:45 AM 47.4°F8.6°C 34.6°F1.4°C 61% 7.0 mph ESE11.3 kmh ESE 14.0 mph22.5 kmh 30.01 in1016.3 mb 0.00 in0.0 mm 0.00 in/hr0.0 mm/hr 0.00 in0.0 mm
04:40 AM 47.5°F8.6°C 34.3°F1.3°C 60% 9.0 mph ESE14.5 kmh ESE 14.0 mph22.5 kmh 30.02 in1016.6 mb 0.00 in0.0 mm 0.00 in/hr0.0 mm/hr 0.00 in0.0 mm
04:35 AM 47.6°F8.7°C 34.0°F1.1°C 59% 7.0 mph SE11.3 kmh SE 14.0 mph22.5 kmh 30.01 in1016.3 mb 0.00 in0.0 mm 0.00 in/hr0.0 mm/hr 0.00 in0.0 mm
04:30 AM 47.6°F8.7°C 34.4°F1.3°C 60% 7.0 mph SE11.3 kmh SE 10.0 mph16.1 kmh 30.01 in1016.3 mb 0.00 in0.0 mm 0.00 in/hr0.0 mm/hr 0.00 in0.0 mm
04:25 AM 47.5°F8.6°C 34.7°F1.5°C 61% 8.0 mph ESE12.9 kmh ESE 13.0 mph20.9 kmh 30.02 in1016.6 mb 0.00 in0.0 mm 0.00 in/hr0.0 mm/hr 0.00 in0.0 mm
04:20 AM 47.3°F8.5°C 34.6°F1.4°C 61% 3.0 mph ESE4.8 kmh ESE 11.0 mph17.7 kmh 30.02 in1016.6 mb 0.00 in0.0 mm 0.00 in/hr0.0 mm/hr 0.00 in0.0 mm
04:15 AM 47.3°F8.5°C 35.4°F1.9°C 63% 4.0 mph SE6.4 kmh SE 9.0 mph14.5 kmh 30.02 in1016.6 mb 0.00 in0.0 mm 0.00 in/hr0.0 mm/hr 0.00 in0.0 mm
04:10 AM 47.4°F8.6°C 35.5°F1.9°C 63% 8.0 mph ESE12.9 kmh ESE 9.0 mph14.5 kmh 30.03 in1016.9 mb 0.00 in0.0 mm 0.00 in/hr0.0 mm/hr 0.00 in0.0 mm
04:05 AM 47.5°F8.6°C 35.6°F2.0°C 63% 3.0 mph ESE4.8 kmh ESE 7.0 mph11.3 kmh 30.03 in1016.9 mb 0.00 in0.0 mm 0.00 in/hr0.0 mm/hr 0.00 in0.0 mm
04:00 AM 47.6°F8.7°C 35.2°F1.8°C 62% 3.0 mph SE4.8 kmh SE 7.0 mph11.3 kmh 30.03 in1016.9 mb 0.00 in0.0 mm 0.00 in/hr0.0 mm/hr 0.00 in0.0 mm
03:55 AM 47.6°F8.7°C 35.2°F1.8°C 62% 4.0 mph SE6.4 kmh SE 9.0 mph14.5 kmh 30.03 in1016.9 mb 0.00 in0.0 mm 0.00 in/hr0.0 mm/hr 0.00 in0.0 mm
03:50 AM 47.7°F8.7°C 35.3°F1.8°C 62% 5.0 mph SE8.0 kmh SE 9.0 mph14.5 kmh 30.03 in1016.9 mb 0.00 in0.0 mm 0.00 in/hr0.0 mm/hr 0.00 in0.0 mm
03:45 AM 47.9°F8.8°C 35.1°F1.7°C 61% 4.0 mph E6.4 kmh E 9.0 mph14.5 kmh 30.03 in1016.9 mb 0.00 in0.0 mm 0.00 in/hr0.0 mm/hr 0.00 in0.0 mm
03:40 AM 48.2°F9.0°C 34.6°F1.4°C 59% 5.0 mph ESE8.0 kmh ESE 9.0 mph14.5 kmh 30.03 in1016.9 mb 0.00 in0.0 mm 0.00 in/hr0.0 mm/hr 0.00 in0.0 mm
03:35 AM 48.5°F9.2°C 34.8°F1.6°C 59% 4.0 mph ESE6.4 kmh ESE 9.0 mph14.5 kmh 30.03 in1016.9 mb 0.00 in0.0 mm 0.00 in/hr0.0 mm/hr 0.00 in0.0 mm
03:30 AM 48.8°F9.3°C 34.3°F1.3°C 57% 7.0 mph SE11.3 kmh SE 8.0 mph12.9 kmh 30.02 in1016.6 mb 0.00 in0.0 mm 0.00 in/hr0.0 mm/hr 0.00 in0.0 mm
03:25 AM 48.9°F9.4°C 33.9°F1.1°C 56% 5.0 mph SE8.0 kmh SE 13.0 mph20.9 kmh 30.03 in1016.9 mb 0.00 in0.0 mm 0.00 in/hr0.0 mm/hr 0.00 in0.0 mm
03:20 AM 48.9°F9.4°C 33.5°F0.8°C 55% 6.0 mph SE9.7 kmh SE 13.0 mph20.9 kmh 30.03 in1016.9 mb 0.00 in0.0 mm 0.00 in/hr0.0 mm/hr 0.00 in0.0 mm
03:15 AM 48.9°F9.4°C 33.5°F0.8°C 55% 3.0 mph SE4.8 kmh SE 13.0 mph20.9 kmh 30.03 in1016.9 mb 0.00 in0.0 mm 0.00 in/hr0.0 mm/hr 0.00 in0.0 mm
03:10 AM 48.9°F9.4°C 33.5°F0.8°C 55% 5.0 mph SE8.0 kmh SE 13.0 mph20.9 kmh 30.03 in1016.9 mb 0.00 in0.0 mm 0.00 in/hr0.0 mm/hr 0.00 in0.0 mm
03:05 AM 48.9°F9.4°C 33.9°F1.1°C 56% 5.0 mph ESE8.0 kmh ESE 10.0 mph16.1 kmh 30.02 in1016.6 mb 0.00 in0.0 mm 0.00 in/hr0.0 mm/hr 0.00 in0.0 mm
03:00 AM 49.0°F9.4°C 34.0°F1.1°C 56% 5.0 mph SE8.0 kmh SE 9.0 mph14.5 kmh 30.03 in1016.9 mb 0.00 in0.0 mm 0.00 in/hr0.0 mm/hr 0.00 in0.0 mm
02:55 AM 49.0°F9.4°C 34.0°F1.1°C 56% 8.0 mph ESE12.9 kmh ESE 11.0 mph17.7 kmh 30.03 in1016.9 mb 0.00 in0.0 mm 0.00 in/hr0.0 mm/hr 0.00 in0.0 mm
02:50 AM 49.1°F9.5°C 34.5°F1.4°C 57% 8.0 mph ESE12.9 kmh ESE 11.0 mph17.7 kmh 30.03 in1016.9 mb 0.00 in0.0 mm 0.00 in/hr0.0 mm/hr 0.00 in0.0 mm
02:45 AM 49.1°F9.5°C 34.5°F1.4°C 57% 7.0 mph ESE11.3 kmh ESE 11.0 mph17.7 kmh 30.03 in1016.9 mb 0.00 in0.0 mm 0.00 in/hr0.0 mm/hr 0.00 in0.0 mm
02:40 AM 49.2°F9.6°C 34.6°F1.4°C 57% 6.0 mph SE9.7 kmh SE 11.0 mph17.7 kmh 30.03 in1016.9 mb 0.00 in0.0 mm 0.00 in/hr0.0 mm/hr 0.00 in0.0 mm
02:35 AM 49.3°F9.6°C 34.7°F1.5°C 57% 3.0 mph SE4.8 kmh SE 11.0 mph17.7 kmh 30.03 in1016.9 mb 0.00 in0.0 mm 0.00 in/hr0.0 mm/hr 0.00 in0.0 mm
02:30 AM 49.4°F9.7°C 34.4°F1.3°C 56% 5.0 mph ESE8.0 kmh ESE 7.0 mph11.3 kmh 30.03 in1016.9 mb 0.00 in0.0 mm 0.00 in/hr0.0 mm/hr 0.00 in0.0 mm
02:25 AM 49.4°F9.7°C 34.4°F1.3°C 56% 2.0 mph SE3.2 kmh SE 9.0 mph14.5 kmh 30.03 in1016.9 mb 0.00 in0.0 mm 0.00 in/hr0.0 mm/hr 0.00 in0.0 mm
02:20 AM 49.5°F9.7°C 34.0°F1.1°C 55% 4.0 mph SE6.4 kmh SE 9.0 mph14.5 kmh 30.03 in1016.9 mb 0.00 in0.0 mm 0.00 in/hr0.0 mm/hr 0.00 in0.0 mm
02:15 AM 49.6°F9.8°C 34.1°F1.2°C 55% 5.0 mph ESE8.0 kmh ESE 9.0 mph14.5 kmh 30.03 in1016.9 mb 0.00 in0.0 mm 0.00 in/hr0.0 mm/hr 0.00 in0.0 mm
02:10 AM 49.7°F9.8°C 34.2°F1.2°C 55% 7.0 mph SE11.3 kmh SE 9.0 mph14.5 kmh 30.03 in1016.9 mb 0.00 in0.0 mm 0.00 in/hr0.0 mm/hr 0.00 in0.0 mm
02:05 AM 49.7°F9.8°C 33.8°F1.0°C 54% 8.0 mph ESE12.9 kmh ESE 9.0 mph14.5 kmh 30.03 in1016.9 mb 0.00 in0.0 mm 0.00 in/hr0.0 mm/hr 0.00 in0.0 mm
02:00 AM 49.7°F9.8°C 33.8°F1.0°C 54% 4.0 mph ESE6.4 kmh ESE 8.0 mph12.9 kmh 30.03 in1016.9 mb 0.00 in0.0 mm 0.00 in/hr0.0 mm/hr 0.00 in0.0 mm
01:55 AM 49.7°F9.8°C 33.8°F1.0°C 54% 5.0 mph SE8.0 kmh SE 11.0 mph17.7 kmh 30.03 in1016.9 mb 0.00 in0.0 mm 0.00 in/hr0.0 mm/hr 0.00 in0.0 mm
01:50 AM 49.7°F9.8°C 33.8°F1.0°C 54% 8.0 mph SE12.9 kmh SE 11.0 mph17.7 kmh 30.03 in1016.9 mb 0.00 in0.0 mm 0.00 in/hr0.0 mm/hr 0.00 in0.0 mm
01:45 AM 49.7°F9.8°C 34.2°F1.2°C 55% 4.0 mph SE6.4 kmh SE 11.0 mph17.7 kmh 30.03 in1016.9 mb 0.00 in0.0 mm 0.00 in/hr0.0 mm/hr 0.00 in0.0 mm
01:40 AM 49.7°F9.8°C 34.2°F1.2°C 55% 6.0 mph E9.7 kmh E 10.0 mph16.1 kmh 30.03 in1016.9 mb 0.00 in0.0 mm 0.00 in/hr0.0 mm/hr 0.00 in0.0 mm
01:35 AM 49.7°F9.8°C 34.7°F1.5°C 56% 3.0 mph ESE4.8 kmh ESE 9.0 mph14.5 kmh 30.03 in1016.9 mb 0.00 in0.0 mm 0.00 in/hr0.0 mm/hr 0.00 in0.0 mm
01:30 AM 49.7°F9.8°C 34.7°F1.5°C 56% 3.0 mph ESE4.8 kmh ESE 8.0 mph12.9 kmh 30.03 in1016.9 mb 0.00 in0.0 mm 0.00 in/hr0.0 mm/hr 0.00 in0.0 mm
01:25 AM 49.7°F9.8°C 34.7°F1.5°C 56% 6.0 mph SE9.7 kmh SE 10.0 mph16.1 kmh 30.03 in1016.9 mb 0.00 in0.0 mm 0.00 in/hr0.0 mm/hr 0.00 in0.0 mm
01:20 AM 49.9°F9.9°C 34.8°F1.6°C 56% 7.0 mph SE11.3 kmh SE 10.0 mph16.1 kmh 30.03 in1016.9 mb 0.00 in0.0 mm 0.00 in/hr0.0 mm/hr 0.00 in0.0 mm
01:15 AM 49.9°F9.9°C 34.4°F1.3°C 55% 4.0 mph ESE6.4 kmh ESE 9.0 mph14.5 kmh 30.03 in1016.9 mb 0.00 in0.0 mm 0.00 in/hr0.0 mm/hr 0.00 in0.0 mm
01:10 AM 50.0°F10.0°C 34.5°F1.4°C 55% 5.0 mph ESE8.0 kmh ESE 8.0 mph12.9 kmh 30.03 in1016.9 mb 0.00 in0.0 mm 0.00 in/hr0.0 mm/hr 0.00 in0.0 mm
01:05 AM 50.1°F10.1°C 34.6°F1.4°C 55% 6.0 mph E9.7 kmh E 8.0 mph12.9 kmh 30.03 in1016.9 mb 0.00 in0.0 mm 0.00 in/hr0.0 mm/hr 0.00 in0.0 mm
01:00 AM 50.2°F10.1°C 34.7°F1.5°C 55% 4.0 mph ESE6.4 kmh ESE 7.0 mph11.3 kmh 30.04 in1017.3 mb 0.00 in0.0 mm 0.00 in/hr0.0 mm/hr 0.00 in0.0 mm
12:55 AM 50.1°F10.1°C 34.6°F1.4°C 55% 4.0 mph SE6.4 kmh SE 12.0 mph19.3 kmh 30.04 in1017.3 mb 0.00 in0.0 mm 0.00 in/hr0.0 mm/hr 0.00 in0.0 mm
12:50 AM 50.1°F10.1°C 34.6°F1.4°C 55% 8.0 mph SE12.9 kmh SE 12.0 mph19.3 kmh 30.04 in1017.3 mb 0.00 in0.0 mm 0.00 in/hr0.0 mm/hr 0.00 in0.0 mm
12:45 AM 50.2°F10.1°C 34.7°F1.5°C 55% 3.0 mph ESE4.8 kmh ESE 11.0 mph17.7 kmh 30.04 in1017.3 mb 0.00 in0.0 mm 0.00 in/hr0.0 mm/hr 0.00 in0.0 mm
12:40 AM 50.1°F10.1°C 34.6°F1.4°C 55% 3.0 mph ESE4.8 kmh ESE 11.0 mph17.7 kmh 30.04 in1017.3 mb 0.00 in0.0 mm 0.00 in/hr0.0 mm/hr 0.00 in0.0 mm
12:35 AM 50.2°F10.1°C 34.7°F1.5°C 55% 4.0 mph ESE6.4 kmh ESE 11.0 mph17.7 kmh 30.03 in1016.9 mb 0.00 in0.0 mm 0.00 in/hr0.0 mm/hr 0.00 in0.0 mm
12:30 AM 50.4°F10.2°C 34.4°F1.3°C 54% 9.0 mph ESE14.5 kmh ESE 11.0 mph17.7 kmh 30.03 in1016.9 mb 0.00 in0.0 mm 0.00 in/hr0.0 mm/hr 0.00 in0.0 mm
12:25 AM 50.5°F10.3°C 35.0°F1.7°C 55% 3.0 mph E4.8 kmh E 10.0 mph16.1 kmh 30.03 in1016.9 mb 0.00 in0.0 mm 0.00 in/hr0.0 mm/hr 0.00 in0.0 mm
12:20 AM 50.6°F10.3°C 34.6°F1.4°C 54% 3.0 mph E4.8 kmh E 10.0 mph16.1 kmh 30.03 in1016.9 mb 0.00 in0.0 mm 0.00 in/hr0.0 mm/hr 0.00 in0.0 mm
12:15 AM 50.7°F10.4°C 34.7°F1.5°C 54% 5.0 mph E8.0 kmh E 10.0 mph16.1 kmh 30.03 in1016.9 mb 0.00 in0.0 mm 0.00 in/hr0.0 mm/hr 0.00 in0.0 mm
12:10 AM 50.7°F10.4°C 34.7°F1.5°C 54% 6.0 mph SE9.7 kmh SE 9.0 mph14.5 kmh 30.03 in1016.9 mb 0.00 in0.0 mm 0.00 in/hr0.0 mm/hr 0.00 in0.0 mm
12:05 AM 50.9°F10.5°C 35.3°F1.8°C 55% 7.0 mph SE11.3 kmh SE 9.0 mph14.5 kmh 30.03 in1016.9 mb 0.00 in0.0 mm 0.00 in/hr0.0 mm/hr 0.00 in0.0 mm
12:00 AM 51.1°F10.6°C 35.5°F1.9°C 55% 4.0 mph ESE6.4 kmh ESE 5.0 mph8.0 kmh 30.03 in1016.9 mb 0.00 in0.0 mm 0.00 in/hr0.0 mm/hr 0.00 in0.0 mm